Time;durP1;ratioP1;P1;durP2;ratioP2;P2;SDS_P1;SDS_P2;PMS_P1;PMS_P2;Temp;Humidity;BMP_temperature;BMP_pressure;BME280_temperature;BME280_humidity;BME280_pressure;Samples;Min_cycle;Max_cycle;Signal;HPM_P1;HPM_P2
2022/06/18 00:02:00;;;;;;;6.57;4.10;;;20.90;94.40;;;;;;5063438;28;20469;-84
2022/06/18 00:04:32;;;;;;;7.93;6.20;;;20.90;94.70;;;;;;5064289;28;20479;-85
2022/06/18 00:07:01;;;;;;;5.93;4.80;;;20.80;94.80;;;;;;5066353;28;20465;-84
2022/06/18 00:09:31;;;;;;;6.77;4.10;;;20.90;94.80;;;;;;5064067;28;20481;-85
2022/06/18 00:14:49;;;;;;;6.07;3.67;;;20.80;95.10;;;;;;5071140;28;20408;-85
2022/06/18 00:17:19;;;;;;;5.70;3.77;;;20.80;95.30;;;;;;5063767;28;20894;-84
2022/06/18 00:19:49;;;;;;;6.43;3.47;;;20.80;95.50;;;;;;5064861;28;20429;-84
2022/06/18 00:22:18;;;;;;;4.40;3.50;;;20.70;95.60;;;;;;5064856;28;20477;-84
2022/06/18 00:24:45;;;;;;;6.20;4.03;;;20.70;95.90;;;;;;5063203;28;20463;-85
2022/06/18 00:27:13;;;;;;;5.23;4.00;;;20.60;96.20;;;;;;5065368;28;20536;-85
2022/06/18 00:29:42;;;;;;;6.43;3.70;;;20.60;96.60;;;;;;5064023;28;20523;-84
2022/06/18 00:32:12;;;;;;;5.80;3.40;;;20.60;96.80;;;;;;5063491;28;20516;-84
2022/06/18 00:34:41;;;;;;;5.10;3.37;;;20.60;96.80;;;;;;5063559;28;20536;-84
2022/06/18 00:37:15;;;;;;;4.80;3.57;;;20.50;96.90;;;;;;5065020;28;20444;-84
2022/06/18 00:39:42;;;;;;;4.63;3.30;;;20.60;96.80;;;;;;5064443;28;20453;-83
2022/06/18 00:42:21;;;;;;;20.13;4.27;;;20.60;96.90;;;;;;5064405;28;20496;-84
2022/06/18 00:44:53;;;;;;;4.50;3.30;;;20.70;96.60;;;;;;5065109;28;20437;-84
2022/06/18 00:47:30;;;;;;;5.60;3.90;;;20.60;96.50;;;;;;5067162;28;20440;-84
2022/06/18 00:50:06;;;;;;;5.50;3.80;;;20.60;96.60;;;;;;5078704;28;20523;-82
2022/06/18 00:52:39;;;;;;;5.10;3.97;;;20.70;96.50;;;;;;5078069;28;20456;-84
2022/06/18 00:55:16;;;;;;;6.20;3.77;;;20.60;96.50;;;;;;5074802;28;20496;-86
2022/06/18 00:57:48;;;;;;;4.17;3.10;;;20.60;96.50;;;;;;5069957;28;20413;-82
2022/06/18 01:00:18;;;;;;;4.93;3.20;;;20.60;96.30;;;;;;5079559;28;20425;-85
2022/06/18 01:02:48;;;;;;;6.03;3.70;;;20.60;96.30;;;;;;5074484;28;20511;-85
2022/06/18 01:05:24;;;;;;;4.87;3.30;;;20.60;96.50;;;;;;5074164;28;20819;-85
2022/06/18 01:07:55;;;;;;;4.47;3.00;;;20.60;96.10;;;;;;5066711;28;20429;-85
2022/06/18 01:10:31;;;;;;;6.17;3.47;;;20.60;96.20;;;;;;5064939;28;20483;-86
2022/06/18 01:12:59;;;;;;;7.20;3.60;;;20.50;96.30;;;;;;5063878;28;20469;-85
2022/06/18 01:15:27;;;;;;;7.30;3.53;;;20.50;96.50;;;;;;5063707;28;20491;-85
2022/06/18 01:17:55;;;;;;;4.60;3.33;;;20.40;96.70;;;;;;5066895;28;20490;-86
2022/06/18 01:20:24;;;;;;;7.73;3.57;;;20.40;96.90;;;;;;5066290;28;20464;-85
2022/06/18 01:23:05;;;;;;;6.67;3.67;;;20.50;96.80;;;;;;5067708;28;20576;-85
2022/06/18 01:25:35;;;;;;;5.50;3.43;;;20.50;96.90;;;;;;5063114;28;20429;-85
2022/06/18 01:28:02;;;;;;;5.10;3.10;;;20.40;96.90;;;;;;5062995;28;20457;-84
2022/06/18 01:30:36;;;;;;;4.30;3.20;;;20.40;96.80;;;;;;5062581;28;20548;-85
2022/06/18 01:33:06;;;;;;;4.73;3.50;;;20.50;96.70;;;;;;5085019;22;20516;-85
2022/06/18 01:35:36;;;;;;;5.63;3.87;;;20.50;96.70;;;;;;5065721;28;20426;-85
2022/06/18 01:38:04;;;;;;;5.47;3.33;;;20.40;97.10;;;;;;5065243;28;20532;-85
2022/06/18 01:40:38;;;;;;;5.10;3.80;;;20.30;97.50;;;;;;5063126;28;20463;-85
2022/06/18 01:43:07;;;;;;;5.37;3.63;;;20.30;97.80;;;;;;5064162;28;20473;-86
2022/06/18 01:45:38;;;;;;;4.80;3.50;;;20.20;97.70;;;;;;5063442;28;20468;-86
2022/06/18 01:48:12;;;;;;;4.90;3.30;;;20.20;98.00;;;;;;5073139;28;20456;-84
2022/06/18 01:50:50;;;;;;;5.43;3.37;;;20.20;97.60;;;;;;5077851;28;20484;-84
2022/06/18 01:53:20;;;;;;;5.27;3.20;;;20.20;97.60;;;;;;5069287;28;20468;-85
2022/06/18 01:55:54;;;;;;;5.60;3.80;;;20.30;97.50;;;;;;5065214;28;20839;-86
2022/06/18 01:58:26;;;;;;;4.67;3.40;;;20.30;97.60;;;;;;5064929;28;20457;-85
2022/06/18 02:00:57;;;;;;;4.80;3.30;;;20.30;97.60;;;;;;5064373;28;20472;-86
2022/06/18 02:03:24;;;;;;;4.50;3.40;;;20.40;97.70;;;;;;5062968;28;20841;-86
2022/06/18 02:05:51;;;;;;;5.83;3.13;;;20.40;97.60;;;;;;5063969;28;20457;-84
2022/06/18 02:08:20;;;;;;;5.20;3.90;;;20.50;97.50;;;;;;5062835;28;20472;-86
2022/06/18 02:10:55;;;;;;;7.10;4.30;;;20.40;97.60;;;;;;5062654;28;20484;-84
2022/06/18 02:13:26;;;;;;;4.47;3.53;;;20.30;97.90;;;;;;5063756;28;20528;-85
2022/06/18 02:15:56;;;;;;;6.27;3.23;;;20.20;98.20;;;;;;5062962;28;20487;-85
2022/06/18 02:18:23;;;;;;;5.10;3.60;;;20.10;98.50;;;;;;5062985;28;20456;-85
2022/06/18 02:20:52;;;;;;;4.43;3.60;;;20.10;98.70;;;;;;5062422;28;20445;-85
2022/06/18 02:23:21;;;;;;;5.87;3.43;;;19.90;98.90;;;;;;5062034;28;20473;-85
2022/06/18 02:25:50;;;;;;;5.87;3.50;;;20.00;99.20;;;;;;5064363;28;20438;-85
2022/06/18 02:28:22;;;;;;;5.20;3.60;;;19.90;99.10;;;;;;5072164;28;20449;-85
2022/06/18 02:30:49;;;;;;;5.13;3.43;;;19.90;99.30;;;;;;5073828;28;20473;-85
2022/06/18 02:33:31;;;;;;;5.80;3.60;;;19.90;99.50;;;;;;5068650;28;20996;-86
2022/06/18 02:36:01;;;;;;;12.53;3.93;;;19.90;99.70;;;;;;5073256;28;20441;-85
2022/06/18 02:38:28;;;;;;;4.83;3.23;;;19.80;99.70;;;;;;5069601;28;20506;-87
2022/06/18 02:40:58;;;;;;;5.73;3.73;;;19.80;99.80;;;;;;5064798;28;20949;-85
2022/06/18 02:43:25;;;;;;;5.60;3.50;;;19.90;99.90;;;;;;5072830;28;20876;-86
2022/06/18 02:45:56;;;;;;;5.20;3.83;;;19.90;99.90;;;;;;5064393;28;20470;-86
2022/06/18 02:48:27;;;;;;;4.70;3.80;;;19.90;99.90;;;;;;5066114;28;20448;-84
2022/06/18 02:50:56;;;;;;;6.33;3.73;;;19.80;99.90;;;;;;5077699;28;20476;-85
2022/06/18 02:53:23;;;;;;;4.83;3.47;;;19.80;99.90;;;;;;5078354;28;20457;-84
2022/06/18 02:55:54;;;;;;;4.40;3.33;;;19.80;99.90;;;;;;5078110;28;20448;-84
2022/06/18 02:58:27;;;;;;;5.33;3.40;;;19.70;99.90;;;;;;5073320;28;20437;-85
2022/06/18 03:00:55;;;;;;;7.70;3.47;;;19.70;99.90;;;;;;5063975;28;20472;-86
2022/06/18 03:03:24;;;;;;;4.87;3.50;;;19.70;99.90;;;;;;5062275;28;20472;-85
2022/06/18 03:05:52;;;;;;;5.27;3.40;;;19.70;99.90;;;;;;5062613;28;20454;-85
2022/06/18 03:08:19;;;;;;;7.57;3.70;;;19.70;99.90;;;;;;5061865;28;20467;-85
2022/06/18 03:13:34;;;;;;;4.60;3.20;;;19.70;99.90;;;;;;5061301;28;20472;-85
2022/06/18 03:16:04;;;;;;;6.47;3.67;;;19.70;99.90;;;;;;5060993;28;20522;-85
2022/06/18 03:18:32;;;;;;;5.57;3.70;;;19.60;99.90;;;;;;5061729;28;20445;-85
2022/06/18 03:21:15;;;;;;;6.67;3.73;;;19.60;99.90;;;;;;5060929;28;20491;-84
2022/06/18 03:23:42;;;;;;;4.57;3.50;;;19.60;99.90;;;;;;5060662;28;20488;-86
2022/06/18 03:26:09;;;;;;;8.17;3.93;;;19.60;99.90;;;;;;5060073;28;20510;-84
2022/06/18 03:28:38;;;;;;;7.03;3.67;;;19.60;99.90;;;;;;5061223;28;20464;-84
2022/06/18 03:31:05;;;;;;;4.27;3.10;;;19.60;99.90;;;;;;5062781;28;20552;-85
2022/06/18 03:33:31;;;;;;;5.50;3.60;;;19.60;99.90;;;;;;5058150;28;21045;-84
2022/06/18 03:36:00;;;;;;;4.90;3.70;;;19.70;99.90;;;;;;5057522;28;20477;-84
2022/06/18 03:38:27;;;;;;;5.90;3.87;;;19.60;99.90;;;;;;5062021;28;20442;-83
2022/06/18 03:40:56;;;;;;;5.43;4.03;;;19.60;99.90;;;;;;5058577;28;20441;-85
2022/06/18 03:43:24;;;;;;;5.87;3.80;;;19.60;99.90;;;;;;5066789;28;20523;-85
2022/06/18 03:45:55;;;;;;;6.57;4.03;;;19.60;99.90;;;;;;5072789;28;20433;-85
2022/06/18 03:48:27;;;;;;;4.40;3.33;;;19.60;99.90;;;;;;5067353;28;20453;-85
2022/06/18 03:50:54;;;;;;;4.87;3.47;;;19.60;99.90;;;;;;5062672;28;20469;-85
2022/06/18 03:53:21;;;;;;;6.70;3.70;;;19.60;99.90;;;;;;5064359;28;20484;-85
2022/06/18 03:55:49;;;;;;;6.23;3.37;;;19.50;99.90;;;;;;5066404;28;20477;-85
2022/06/18 03:58:18;;;;;;;6.47;3.97;;;19.50;99.90;;;;;;5062389;28;20419;-85
2022/06/18 04:00:45;;;;;;;4.90;3.43;;;19.50;99.90;;;;;;5064334;28;20502;-85
2022/06/18 04:03:14;;;;;;;4.97;3.50;;;19.60;99.90;;;;;;5074471;28;20480;-84
2022/06/18 04:05:42;;;;;;;4.83;4.33;;;19.70;99.90;;;;;;5071715;28;20768;-85
2022/06/18 04:08:10;;;;;;;7.50;4.37;;;19.70;99.90;;;;;;5061812;28;20484;-85
2022/06/18 04:10:40;;;;;;;5.67;4.07;;;19.60;99.90;;;;;;5065094;28;20481;-85
2022/06/18 04:13:07;;;;;;;5.20;4.10;;;19.70;99.90;;;;;;5067636;28;20465;-85
2022/06/18 04:15:34;;;;;;;6.70;3.70;;;19.90;99.90;;;;;;5060986;28;20513;-85
2022/06/18 04:18:02;;;;;;;6.27;3.60;;;19.90;99.90;;;;;;5061064;28;20464;-85
2022/06/18 04:20:34;;;;;;;4.33;3.50;;;20.00;99.90;;;;;;5066024;28;20452;-85
2022/06/18 04:23:01;;;;;;;4.73;3.57;;;19.80;99.90;;;;;;5065589;28;20469;-86
2022/06/18 04:25:28;;;;;;;5.10;3.67;;;19.80;99.90;;;;;;5067911;28;20445;-84
2022/06/18 04:27:57;;;;;;;5.73;3.77;;;19.80;99.90;;;;;;5066083;28;20484;-84
2022/06/18 04:30:25;;;;;;;5.90;3.80;;;19.80;99.90;;;;;;5055487;28;20488;-85
2022/06/18 04:32:52;;;;;;;5.60;3.73;;;19.70;99.90;;;;;;5058024;28;20481;-85
2022/06/18 04:35:19;;;;;;;7.50;4.00;;;19.60;99.90;;;;;;5060768;28;20445;-84
2022/06/18 04:37:48;;;;;;;5.33;4.10;;;19.70;99.90;;;;;;5061019;28;21011;-85
2022/06/18 04:40:18;;;;;;;5.57;4.73;;;19.70;99.90;;;;;;5060434;28;20465;-85
2022/06/18 04:42:46;;;;;;;4.60;3.70;;;19.80;99.90;;;;;;5059998;28;20520;-84
2022/06/18 04:45:13;;;;;;;4.87;3.73;;;19.90;99.90;;;;;;5060423;28;20510;-84
2022/06/18 04:47:41;;;;;;;5.13;3.60;;;19.90;99.90;;;;;;5064617;28;20472;-84
2022/06/18 04:50:17;;;;;;;5.40;3.90;;;20.00;99.90;;;;;;5074777;28;20483;-85
2022/06/18 04:52:44;;;;;;;5.07;3.97;;;20.00;99.90;;;;;;5073573;28;20606;-85
2022/06/18 04:55:13;;;;;;;8.30;3.67;;;20.10;99.90;;;;;;5066177;28;20460;-85
2022/06/18 04:57:40;;;;;;;7.20;4.23;;;20.10;99.90;;;;;;5072570;28;20481;-85
2022/06/18 05:00:10;;;;;;;6.30;3.67;;;20.20;99.90;;;;;;5079960;28;20468;-83
2022/06/18 05:02:38;;;;;;;5.37;4.07;;;20.30;99.90;;;;;;5079869;28;20493;-84
2022/06/18 05:05:08;;;;;;;7.23;3.83;;;20.50;99.90;;;;;;5078499;28;20445;-84
2022/06/18 05:07:35;;;;;;;6.40;4.30;;;20.50;99.90;;;;;;5062127;28;20449;-84
2022/06/18 05:10:02;;;;;;;6.63;4.80;;;20.70;99.90;;;;;;5065831;28;20480;-85
2022/06/18 05:12:30;;;;;;;5.37;3.80;;;20.80;99.90;;;;;;5067152;28;20840;-86
2022/06/18 05:14:59;;;;;;;5.93;4.57;;;20.90;99.90;;;;;;5066740;28;20747;-86
2022/06/18 05:17:28;;;;;;;5.70;4.03;;;20.90;99.90;;;;;;5065205;28;20544;-86
2022/06/18 05:19:54;;;;;;;7.77;4.30;;;21.00;99.90;;;;;;5065051;28;20455;-85
2022/06/18 05:22:21;;;;;;;5.70;4.27;;;21.10;99.90;;;;;;5063798;28;20537;-85
2022/06/18 05:24:48;;;;;;;5.10;3.90;;;21.10;99.90;;;;;;5063655;28;20457;-86
2022/06/18 05:27:20;;;;;;;8.20;4.80;;;21.10;99.90;;;;;;5064516;28;20453;-85
2022/06/18 05:29:49;;;;;;;5.67;4.27;;;21.30;99.90;;;;;;5063716;28;20438;-85
2022/06/18 05:32:16;;;;;;;6.23;4.50;;;21.30;99.90;;;;;;5064028;28;20473;-85
2022/06/18 05:34:43;;;;;;;7.50;4.33;;;21.40;99.90;;;;;;5063528;28;20461;-85
2022/06/18 05:37:13;;;;;;;5.60;4.00;;;21.50;99.90;;;;;;5063240;28;20532;-85
2022/06/18 05:39:42;;;;;;;6.10;4.60;;;21.60;99.90;;;;;;5065344;28;20445;-85
2022/06/18 05:42:12;;;;;;;6.93;4.50;;;21.60;99.90;;;;;;5064003;28;20523;-85
2022/06/18 05:44:39;;;;;;;8.73;5.33;;;21.70;99.90;;;;;;5062759;28;20476;-85
2022/06/18 05:47:20;;;;;;;5.20;4.23;;;21.80;99.90;;;;;;5074745;28;20441;-85
2022/06/18 05:49:50;;;;;;;6.50;4.83;;;21.90;99.80;;;;;;5064621;28;20488;-86
2022/06/18 05:52:17;;;;;;;7.40;4.60;;;22.00;99.80;;;;;;5064856;28;20992;-85
2022/06/18 05:54:45;;;;;;;7.20;4.83;;;22.10;99.70;;;;;;5065154;28;20449;-85
2022/06/18 05:57:11;;;;;;;5.90;4.80;;;22.20;99.60;;;;;;5065043;28;20533;-85
2022/06/18 05:59:39;;;;;;;7.13;4.67;;;22.40;99.40;;;;;;5072512;28;20453;-85
2022/06/18 06:02:07;;;;;;;6.83;4.63;;;22.60;99.30;;;;;;5066965;28;20491;-86
2022/06/18 06:04:35;;;;;;;7.13;4.50;;;22.70;98.70;;;;;;5064053;28;20437;-85
2022/06/18 06:07:02;;;;;;;7.57;4.90;;;23.00;98.30;;;;;;5064270;28;20449;-85
2022/06/18 06:12:14;;;;;;;10.13;4.97;;;23.20;97.20;;;;;;5063676;28;20560;-86
2022/06/18 06:14:44;;;;;;;8.67;5.10;;;23.30;96.90;;;;;;5062944;28;20900;-85
2022/06/18 06:17:15;;;;;;;9.17;5.23;;;23.40;96.60;;;;;;5064163;28;20480;-86
2022/06/18 06:19:46;;;;;;;6.07;4.70;;;23.60;96.10;;;;;;5071080;28;20437;-85
2022/06/18 06:22:13;;;;;;;5.60;4.80;;;23.80;95.90;;;;;;5076615;28;20484;-85
2022/06/18 06:24:40;;;;;;;6.30;5.30;;;23.90;95.20;;;;;;5072455;28;20496;-85
2022/06/18 06:27:07;;;;;;;6.40;4.73;;;24.00;95.10;;;;;;5066877;28;20437;-85
2022/06/18 06:29:34;;;;;;;9.17;5.20;;;24.10;94.70;;;;;;5065016;28;20491;-86
2022/06/18 06:32:00;;;;;;;8.43;5.50;;;24.20;94.60;;;;;;5063901;28;20481;-86
2022/06/18 06:34:28;;;;;;;6.83;5.20;;;24.20;94.50;;;;;;5064435;28;20532;-85
2022/06/18 06:36:58;;;;;;;6.47;5.23;;;24.20;94.60;;;;;;5064713;28;20468;-85
2022/06/18 06:39:25;;;;;;;6.17;4.90;;;24.30;94.50;;;;;;5068293;28;20429;-85
2022/06/18 06:41:52;;;;;;;6.63;4.57;;;24.30;94.50;;;;;;5069638;28;20433;-86
2022/06/18 06:44:19;;;;;;;7.13;4.53;;;24.50;94.30;;;;;;5066854;28;20441;-86
2022/06/18 06:46:46;;;;;;;6.93;5.20;;;24.50;93.30;;;;;;5065016;28;20473;-86
2022/06/18 06:49:12;;;;;;;5.93;4.27;;;24.60;93.00;;;;;;5065280;28;20513;-86
2022/06/18 06:51:40;;;;;;;7.53;5.07;;;24.80;92.30;;;;;;5064094;28;20516;-86
2022/06/18 06:54:09;;;;;;;5.30;4.60;;;24.90;92.20;;;;;;5064535;28;20484;-86
2022/06/18 06:59:21;;;;;;;7.40;4.30;;;25.00;91.80;;;;;;5064063;28;20937;-86
2022/06/18 07:01:48;;;;;;;8.47;4.87;;;25.20;90.90;;;;;;5063777;28;20492;-86
2022/06/18 07:04:15;;;;;;;6.80;4.00;;;25.30;90.90;;;;;;5064120;28;20472;-86
2022/06/18 07:06:43;;;;;;;8.17;4.63;;;25.30;90.80;;;;;;5075690;28;20461;-87
2022/06/18 07:09:11;;;;;;;5.90;4.27;;;25.40;90.70;;;;;;5077112;28;20433;-88
2022/06/18 07:11:39;;;;;;;6.40;4.37;;;25.40;90.90;;;;;;5077301;28;20469;-87
2022/06/18 07:14:06;;;;;;;6.60;4.60;;;25.50;90.50;;;;;;5074919;28;20449;-86
2022/06/18 07:16:34;;;;;;;7.77;4.50;;;25.70;90.50;;;;;;5064018;28;20508;-86
2022/06/18 07:19:11;;;;;;;;;;;;;;;;;;;;;
2022/06/18 07:21:39;;;;;;;6.40;4.37;;;26.00;90.40;;;;;;5068468;28;20448;-84
2022/06/18 07:24:08;;;;;;;6.60;4.30;;;26.10;87.00;;;;;;5070547;28;20520;-86
2022/06/18 07:26:36;;;;;;;7.13;4.53;;;26.10;85.00;;;;;;5065670;28;20477;-85
2022/06/18 07:29:03;;;;;;;6.80;4.80;;;26.10;85.30;;;;;;5067553;28;20445;-86
2022/06/18 07:31:32;;;;;;;6.10;4.67;;;26.20;84.20;;;;;;5070260;28;20564;-86
2022/06/18 07:34:01;;;;;;;9.17;4.57;;;26.30;82.60;;;;;;5095792;22;20553;-86
2022/06/18 07:36:38;;;;;;;6.97;4.40;;;26.30;83.10;;;;;;5071756;28;20452;-87
2022/06/18 07:39:15;;;;;;;7.07;4.40;;;26.40;84.00;;;;;;5069521;28;20449;-87
2022/06/18 07:41:54;;;;;;;9.43;3.90;;;26.50;84.10;;;;;;5067198;28;20429;-89
2022/06/18 07:44:28;;;;;;;7.23;4.30;;;26.60;83.70;;;;;;5065652;28;20472;-88
2022/06/18 07:46:57;;;;;;;5.97;4.20;;;26.60;82.60;;;;;;5065159;28;20445;-87
2022/06/18 07:49:27;;;;;;;6.43;4.27;;;26.60;81.30;;;;;;5067271;28;20532;-85
2022/06/18 07:52:06;;;;;;;9.90;4.90;;;26.70;80.60;;;;;;5074155;28;20639;-85
2022/06/18 07:54:43;;;;;;;6.07;3.77;;;26.90;78.40;;;;;;5071933;28;20515;-87
2022/06/18 07:57:19;;;;;;;6.50;3.70;;;27.00;76.70;;;;;;5065083;28;20467;-86
2022/06/18 07:59:54;;;;;;;4.70;3.67;;;27.20;74.80;;;;;;5066001;28;20418;-87
2022/06/18 08:02:28;;;;;;;6.53;3.90;;;27.30;73.50;;;;;;5069830;28;20470;-86
2022/06/18 08:05:03;;;;;;;6.23;4.03;;;27.30;72.90;;;;;;5068390;28;20847;-86
2022/06/18 08:07:36;;;;;;;4.70;3.83;;;27.40;73.50;;;;;;5067454;28;20417;-88
2022/06/18 08:10:08;;;;;;;7.73;4.10;;;27.60;72.60;;;;;;5069177;28;20441;-87
2022/06/18 08:12:43;;;;;;;6.23;3.93;;;27.60;71.60;;;;;;5068014;28;20538;-86
2022/06/18 08:15:16;;;;;;;5.50;3.60;;;27.60;70.00;;;;;;5072728;28;20432;-85
2022/06/18 08:17:45;;;;;;;8.07;3.83;;;27.70;68.50;;;;;;5073843;28;20454;-87
2022/06/18 08:20:15;;;;;;;6.03;3.20;;;27.70;68.40;;;;;;5071820;28;20464;-87
2022/06/18 08:22:57;;;;;;;6.10;4.10;;;27.80;67.10;;;;;;5073620;28;20513;-87
2022/06/18 08:25:47;;;;;;;7.70;3.20;;;27.90;66.30;;;;;;5070730;28;20476;-86
2022/06/18 08:28:33;;;;;;;4.47;3.17;;;28.00;66.90;;;;;;5066718;28;20464;-87
2022/06/18 08:31:09;;;;;;;5.10;3.27;;;27.90;64.80;;;;;;5068270;28;20480;-86
2022/06/18 08:34:07;;;;;;;5.73;2.83;;;27.90;64.30;;;;;;5070752;28;20571;-86
2022/06/18 08:37:06;;;;;;;6.63;3.10;;;28.00;65.00;;;;;;5062665;28;20445;-86
2022/06/18 08:39:36;;;;;;;7.27;3.63;;;28.10;66.00;;;;;;5061625;28;20461;-88
2022/06/18 08:42:36;;;;;;;5.20;3.77;;;28.20;65.40;;;;;;5075156;28;20430;-87
2022/06/18 08:45:33;;;;;;;6.13;3.50;;;28.10;65.60;;;;;;5066483;28;20461;-88
2022/06/18 08:48:14;;;;;;;5.70;3.80;;;28.20;66.70;;;;;;5062531;28;20463;-88
2022/06/18 08:51:13;;;;;;;4.77;3.53;;;28.30;66.50;;;;;;5065831;28;20535;-87
2022/06/18 08:54:38;;;;;;;4.93;4.00;;;28.30;64.10;;;;;;5065396;28;20473;-87
2022/06/18 08:57:23;;;;;;;5.87;3.63;;;28.50;63.60;;;;;;5066946;28;20461;-87
2022/06/18 09:00:05;;;;;;;4.80;3.37;;;28.60;61.70;;;;;;5066899;28;20448;-87
2022/06/18 09:02:50;;;;;;;4.50;3.40;;;28.60;59.80;;;;;;5066415;28;20524;-88
2022/06/18 09:05:38;;;;;;;5.90;4.43;;;28.60;60.40;;;;;;5065247;28;20437;-87
2022/06/18 09:08:43;;;;;;;6.13;3.30;;;28.70;61.50;;;;;;5064510;28;20442;-86
2022/06/18 09:12:04;;;;;;;5.80;3.63;;;28.80;61.40;;;;;;5067128;28;20499;-86
2022/06/18 09:14:38;;;;;;;5.27;3.60;;;29.00;58.90;;;;;;5067656;28;20475;-88
2022/06/18 09:17:33;;;;;;;5.43;3.50;;;29.10;58.30;;;;;;5069769;28;20461;-87
2022/06/18 09:20:15;;;;;;;4.83;3.97;;;29.10;59.30;;;;;;5066311;28;20467;-86
2022/06/18 09:23:03;;;;;;;5.50;3.93;;;29.10;60.00;;;;;;5065078;28;20452;-88
2022/06/18 09:25:40;;;;;;;5.50;3.70;;;29.20;59.80;;;;;;5065251;28;20445;-86
2022/06/18 09:28:17;;;;;;;6.67;3.53;;;29.20;58.50;;;;;;5064266;28;20460;-86
2022/06/18 09:30:50;;;;;;;7.17;3.63;;;29.30;59.10;;;;;;5066296;28;20811;-87
2022/06/18 09:33:21;;;;;;;5.90;3.93;;;29.40;60.60;;;;;;5064836;28;20485;-86
2022/06/18 09:35:54;;;;;;;4.60;3.50;;;29.50;60.00;;;;;;5067983;28;20526;-87
2022/06/18 09:38:28;;;;;;;5.63;3.30;;;29.60;59.00;;;;;;5066880;28;20506;-87
2022/06/18 09:40:58;;;;;;;5.73;3.50;;;29.70;58.70;;;;;;5075562;28;20506;-87
2022/06/18 09:43:42;;;;;;;8.13;2.83;;;29.70;57.90;;;;;;5216248;22;20504;-86
2022/06/18 09:46:36;;;;;;;5.20;3.23;;;29.80;56.20;;;;;;5076754;28;20483;-87
2022/06/18 09:49:26;;;;;;;;;;;;;;;;;;;;;
2022/06/18 10:08:44;;;;;;;4.63;2.70;;;30.00;50.00;;;;;;5044282;28;20636;-85
2022/06/18 10:18:47;;;;;;;5.17;2.60;;;30.30;48.80;;;;;;5040984;28;20458;-85
2022/06/18 11:01:13;;;;;;;4.77;2.70;;;30.80;43.60;;;;;;5162451;27;20293;-88
2022/06/18 11:03:52;;;;;;;5.40;2.60;;;31.70;45.70;;;;;;5166300;27;20478;-86
2022/06/18 11:06:20;;;;;;;4.43;2.80;;;31.60;45.20;;;;;;5168210;27;20449;-88
2022/06/18 11:08:52;;;;;;;5.03;2.90;;;31.40;45.70;;;;;;5165326;27;20488;-87
2022/06/18 11:11:23;;;;;;;7.00;3.63;;;31.40;46.60;;;;;;5167445;27;20431;-88
2022/06/18 11:13:50;;;;;;;4.90;2.80;;;31.40;46.40;;;;;;5163038;27;20481;-87
2022/06/18 11:16:22;;;;;;;5.17;2.97;;;31.50;46.40;;;;;;5163335;27;20453;-87
2022/06/18 11:18:53;;;;;;;4.63;3.27;;;31.40;46.40;;;;;;5164207;27;20835;-86
2022/06/18 11:21:26;;;;;;;5.03;3.07;;;31.40;47.10;;;;;;5164751;27;20515;-88
2022/06/18 11:23:58;;;;;;;6.80;3.30;;;31.30;48.00;;;;;;5166095;27;20481;-88
2022/06/18 11:26:27;;;;;;;5.17;3.27;;;31.30;48.20;;;;;;5160430;27;20499;-87
2022/06/18 11:28:57;;;;;;;7.37;3.40;;;31.40;47.90;;;;;;5161326;27;20471;-86
2022/06/18 11:31:31;;;;;;;5.60;3.47;;;31.40;47.50;;;;;;5159523;27;20420;-87
2022/06/18 11:34:01;;;;;;;9.63;3.70;;;31.50;47.80;;;;;;5158610;27;20517;-87
2022/06/18 11:36:41;;;;;;;7.90;4.07;;;31.50;48.40;;;;;;5160188;27;20508;-87
2022/06/18 11:39:25;;;;;;;6.50;4.17;;;31.60;48.20;;;;;;5159325;27;20477;-87
2022/06/18 11:41:58;;;;;;;5.10;3.63;;;31.70;48.40;;;;;;5159801;27;20487;-88
2022/06/18 11:44:29;;;;;;;8.10;4.00;;;31.90;47.90;;;;;;5158705;27;20459;-87
2022/06/18 11:47:08;;;;;;;6.37;3.60;;;31.80;47.90;;;;;;5161352;27;20452;-87
2022/06/18 11:49:43;;;;;;;7.20;3.63;;;31.80;47.50;;;;;;5162193;27;20462;-87
2022/06/18 11:52:18;;;;;;;6.07;3.23;;;31.90;48.00;;;;;;5161262;27;20434;-87
2022/06/18 11:54:59;;;;;;;7.57;3.77;;;31.70;47.30;;;;;;5162653;27;20443;-88
2022/06/18 11:57:32;;;;;;;10.03;3.60;;;31.80;46.60;;;;;;5162940;27;20435;-87
2022/06/18 12:00:07;;;;;;;10.87;3.47;;;31.90;46.60;;;;;;5162696;27;20511;-88
2022/06/18 12:03:11;;;;;;;6.27;3.60;;;32.00;46.20;;;;;;5147678;27;20466;-87
2022/06/18 12:08:34;;;;;;;9.07;4.00;;;32.00;45.70;;;;;;5138253;27;20444;-87
2022/06/18 12:14:45;;;;;;;5.13;3.30;;;32.10;44.80;;;;;;5149504;27;20508;-87
2022/06/18 12:17:27;;;;;;;12.13;5.00;;;32.10;44.20;;;;;;5147295;27;20433;-88
2022/06/18 12:28:32;;;;;;;16.80;4.87;;;32.30;44.80;;;;;;5076209;28;20907;-87
2022/06/18 12:31:04;;;;;;;9.50;3.50;;;32.40;45.70;;;;;;5082531;28;20478;-87
2022/06/18 12:33:42;;;;;;;10.10;4.73;;;32.50;45.20;;;;;;5085287;28;20483;-87
2022/06/18 12:36:22;;;;;;;9.23;4.50;;;32.70;45.70;;;;;;5085836;28;20447;-87
2022/06/18 12:39:03;;;;;;;9.07;4.20;;;32.70;44.80;;;;;;5096910;28;20414;-86
2022/06/18 12:41:54;;;;;;;12.40;4.93;;;32.70;45.10;;;;;;5093228;28;20440;-87
2022/06/18 12:44:41;;;;;;;14.43;4.80;;;32.70;45.00;;;;;;5083723;28;20504;-87
2022/06/18 12:47:24;;;;;;;15.67;5.10;;;32.80;45.80;;;;;;5085798;28;20454;-87
2022/06/18 12:50:06;;;;;;;13.17;5.33;;;32.80;45.20;;;;;;5086082;28;20530;-85
2022/06/18 12:53:00;;;;;;;13.23;5.03;;;32.90;45.40;;;;;;5084177;28;20424;-86
2022/06/18 12:55:48;;;;;;;13.50;4.57;;;32.90;45.90;;;;;;5087366;28;20513;-86
2022/06/18 12:58:31;;;;;;;23.23;4.90;;;33.00;45.70;;;;;;5085010;28;20457;-87
2022/06/18 13:01:32;;;;;;;9.07;4.87;;;33.10;45.80;;;;;;5084268;28;20461;-86
2022/06/18 13:04:48;;;;;;;12.53;5.33;;;33.10;45.60;;;;;;5086535;28;20477;-86
2022/06/18 13:07:57;;;;;;;9.53;4.80;;;33.10;46.10;;;;;;5088093;28;20435;-87
2022/06/18 13:10:35;;;;;;;10.60;4.80;;;33.20;46.30;;;;;;5090802;28;20873;-87
2022/06/18 13:13:32;;;;;;;11.80;5.10;;;33.20;46.50;;;;;;5090682;28;20489;-87
2022/06/18 13:16:17;;;;;;;12.63;4.93;;;33.40;46.60;;;;;;5083337;28;20446;-87
2022/06/18 13:19:12;;;;;;;9.30;4.93;;;33.50;46.70;;;;;;5084200;28;20459;-87
2022/06/18 13:21:54;;;;;;;7.33;4.80;;;33.50;46.80;;;;;;5085431;28;20461;-86
2022/06/18 13:30:13;;;;;;;13.97;5.07;;;33.50;47.40;;;;;;5081482;28;20540;-86
2022/06/18 13:35:30;;;;;;;15.17;5.20;;;33.80;47.80;;;;;;5084421;28;20471;-86
2022/06/18 13:38:10;;;;;;;7.17;5.03;;;33.70;47.50;;;;;;5083617;28;20431;-85
2022/06/18 13:40:43;;;;;;;10.00;5.17;;;33.80;47.70;;;;;;5083752;28;20433;-85
2022/06/18 13:43:20;;;;;;;9.97;5.50;;;33.90;47.70;;;;;;5084622;28;20906;-85
2022/06/18 13:45:54;;;;;;;11.70;9.40;;;33.90;48.50;;;;;;5083330;28;20924;-85
2022/06/18 13:48:45;;;;;;;9.13;5.20;;;34.00;47.70;;;;;;5083460;28;20416;-85
2022/06/18 13:51:24;;;;;;;7.33;4.77;;;34.00;48.10;;;;;;5083131;28;20479;-85
2022/06/18 13:53:51;;;;;;;9.73;5.77;;;34.00;47.50;;;;;;5083254;28;20556;-84
2022/06/18 13:56:20;;;;;;;12.60;6.10;;;34.10;47.70;;;;;;5083150;28;20476;-85
2022/06/18 13:58:51;;;;;;;10.80;5.00;;;34.20;47.40;;;;;;5082501;28;20820;-85
2022/06/18 14:01:20;;;;;;;10.37;5.40;;;34.20;47.10;;;;;;5084160;28;20438;-84
2022/06/18 14:03:50;;;;;;;12.67;5.63;;;34.30;47.20;;;;;;5096739;28;20474;-84
2022/06/18 14:06:21;;;;;;;16.07;6.50;;;34.50;47.60;;;;;;5090482;28;20527;-84
2022/06/18 14:08:51;;;;;;;9.27;5.53;;;34.60;47.90;;;;;;5085131;28;20425;-84
2022/06/18 14:11:31;;;;;;;11.50;5.30;;;34.80;47.30;;;;;;5063316;28;20530;-82
2022/06/18 14:13:58;;;;;;;13.40;5.67;;;35.00;46.30;;;;;;5079601;28;20473;-84
2022/06/18 14:16:32;;;;;;;9.97;5.27;;;35.00;46.40;;;;;;5079784;28;20446;-84
2022/06/18 14:19:14;;;;;;;9.53;4.93;;;35.30;46.50;;;;;;5080360;28;20469;-84
2022/06/18 14:21:43;;;;;;;10.33;5.87;;;35.50;46.80;;;;;;5080044;28;20499;-84
2022/06/18 14:24:10;;;;;;;8.97;5.10;;;35.30;46.20;;;;;;5079777;28;20500;-85
2022/06/18 14:26:45;;;;;;;15.23;5.73;;;35.30;46.10;;;;;;5081694;28;20509;-85
2022/06/18 14:29:13;;;;;;;10.53;5.30;;;35.40;46.20;;;;;;5082577;28;20433;-85
2022/06/18 14:31:51;;;;;;;9.63;5.20;;;35.60;45.90;;;;;;5083763;28;20452;-85
2022/06/18 14:34:27;;;;;;;16.23;5.57;;;35.40;45.80;;;;;;5095461;28;20553;-84
2022/06/18 14:37:03;;;;;;;16.20;6.47;;;35.50;45.50;;;;;;5096451;28;20499;-86
2022/06/18 14:39:34;;;;;;;9.67;5.50;;;35.60;45.20;;;;;;5089901;28;20461;-85
2022/06/18 14:42:09;;;;;;;13.60;5.40;;;35.90;45.50;;;;;;5083537;28;20436;-85
2022/06/18 14:44:53;;;;;;;7.73;4.93;;;35.90;45.40;;;;;;5084520;28;20638;-84
2022/06/18 14:47:53;;;;;;;15.00;5.43;;;36.30;45.00;;;;;;5084858;28;20931;-85
2022/06/18 14:50:40;;;;;;;16.53;6.20;;;36.60;44.70;;;;;;5083764;28;20533;-85
2022/06/18 14:53:24;;;;;;;10.90;5.80;;;36.70;44.00;;;;;;5082661;28;20531;-85
2022/06/18 14:56:04;;;;;;;15.10;5.80;;;36.70;43.30;;;;;;5082553;28;20511;-84
2022/06/18 14:59:07;;;;;;;11.13;6.07;;;36.40;44.20;;;;;;5084115;28;20436;-85
2022/06/18 15:01:44;;;;;;;14.47;5.60;;;36.60;44.70;;;;;;5090249;28;20745;-85